createdAt,value
2023-04-09T00:14:11.588Z,7.60
2023-04-09T00:16:38.310Z,7.90
2023-04-09T00:19:05.009Z,8.10
2023-04-09T00:21:32.217Z,8.00
2023-04-09T00:23:58.927Z,7.80
2023-04-09T00:26:25.928Z,7.70
2023-04-09T00:28:52.786Z,7.70
2023-04-09T00:31:21.067Z,7.70
2023-04-09T00:33:47.727Z,7.80
2023-04-09T00:36:16.652Z,7.70
2023-04-09T00:38:43.317Z,7.80
2023-04-09T00:41:12.193Z,7.90
2023-04-09T00:43:38.893Z,8.00
2023-04-09T00:46:06.072Z,8.00
2023-04-09T00:48:32.848Z,8.00
2023-04-09T00:50:59.581Z,8.10
2023-04-09T00:53:26.223Z,8.00
2023-04-09T00:55:55.516Z,7.90
2023-04-09T00:58:22.198Z,8.00
2023-04-09T01:00:48.856Z,8.00
2023-04-09T01:03:16.085Z,8.00
2023-04-09T01:05:52.284Z,8.00
2023-04-09T01:08:27.826Z,7.90
2023-04-09T01:11:10.282Z,7.90
2023-04-09T01:13:45.042Z,7.90
2023-04-09T01:16:12.865Z,7.90
2023-04-09T01:18:58.396Z,7.80
2023-04-09T01:21:36.450Z,7.90
2023-04-09T01:24:15.049Z,7.90
2023-04-09T01:27:03.029Z,7.90
2023-04-09T01:29:32.904Z,7.60
2023-04-09T01:32:02.460Z,7.60
2023-04-09T01:34:29.291Z,7.70
2023-04-09T01:36:58.011Z,7.60
2023-04-09T01:39:27.367Z,7.70
2023-04-09T01:41:54.982Z,7.70
2023-04-09T01:44:24.826Z,7.70
2023-04-09T01:46:51.648Z,7.60
2023-04-09T01:49:18.657Z,7.60
2023-04-09T01:51:48.256Z,7.40
2023-04-09T01:54:18.277Z,7.30
2023-04-09T01:56:46.492Z,7.20
2023-04-09T01:59:16.164Z,7.30
2023-04-09T02:01:47.195Z,7.30
2023-04-09T02:04:20.753Z,7.50
2023-04-09T02:06:50.730Z,7.60
2023-04-09T02:09:20.770Z,7.50
2023-04-09T02:11:52.650Z,7.50
2023-04-09T02:14:22.728Z,7.40
2023-04-09T02:16:49.481Z,7.30
2023-04-09T02:19:16.452Z,7.30
2023-04-09T02:21:45.316Z,7.20
2023-04-09T02:24:11.945Z,7.20
2023-04-09T02:26:38.674Z,7.20
2023-04-09T02:29:05.377Z,7.10
2023-04-09T02:31:32.438Z,7.10
2023-04-09T02:33:59.514Z,7.10
2023-04-09T02:36:27.667Z,7.10
2023-04-09T02:38:54.677Z,6.70
2023-04-09T02:41:21.330Z,6.80
2023-04-09T02:43:48.021Z,6.90
2023-04-09T02:46:16.798Z,6.80
2023-04-09T02:48:43.578Z,6.70
2023-04-09T02:51:10.213Z,6.60
2023-04-09T02:53:39.194Z,6.70
2023-04-09T02:56:05.928Z,6.70
2023-04-09T02:58:32.607Z,6.70
2023-04-09T03:01:01.710Z,6.50
2023-04-09T03:03:28.918Z,6.70
2023-04-09T03:05:55.640Z,6.50
2023-04-09T03:08:22.274Z,6.80
2023-04-09T03:10:48.973Z,6.70
2023-04-09T03:13:15.728Z,6.60
2023-04-09T03:15:42.422Z,6.50
2023-04-09T03:18:09.105Z,6.70
2023-04-09T03:20:38.036Z,6.70
2023-04-09T03:23:04.711Z,6.60
2023-04-09T03:25:31.355Z,6.80
2023-04-09T03:28:00.770Z,6.90
2023-04-09T03:30:27.394Z,6.90
2023-04-09T03:32:54.106Z,7.10
2023-04-09T03:35:23.297Z,7.10
2023-04-09T03:37:52.078Z,7.10
2023-04-09T03:40:18.759Z,7.20
2023-04-09T03:42:45.542Z,7.00
2023-04-09T03:45:12.223Z,7.00
2023-04-09T03:47:38.929Z,7.00
2023-04-09T03:50:05.919Z,7.00
2023-04-09T03:52:32.538Z,7.20
2023-04-09T03:54:59.192Z,7.30
2023-04-09T03:57:25.933Z,7.30
2023-04-09T03:59:54.990Z,7.30
2023-04-09T04:02:27.082Z,7.30
2023-04-09T04:04:54.068Z,7.30
2023-04-09T04:07:20.709Z,7.30
2023-04-09T04:09:49.612Z,7.30
2023-04-09T04:12:16.633Z,7.40
2023-04-09T04:14:43.296Z,7.30
2023-04-09T04:17:12.485Z,7.30
2023-04-09T04:19:41.581Z,7.30
2023-04-09T04:22:11.623Z,7.30
2023-04-09T04:24:38.302Z,7.50
2023-04-09T04:27:05.174Z,7.30
2023-04-09T04:29:31.867Z,7.20
2023-04-09T04:31:58.596Z,7.40
2023-04-09T04:34:25.455Z,7.40
2023-04-09T04:36:52.070Z,7.40
2023-04-09T04:39:18.780Z,7.30
2023-04-09T04:41:47.635Z,7.40
2023-04-09T04:44:14.302Z,7.40
2023-04-09T04:46:40.930Z,7.30
2023-04-09T04:49:07.582Z,7.40
2023-04-09T04:51:36.598Z,7.40
2023-04-09T04:54:03.538Z,7.40
2023-04-09T04:56:30.346Z,7.50
2023-04-09T04:59:02.814Z,7.40
2023-04-09T05:01:29.475Z,7.40
2023-04-09T05:03:58.638Z,7.40
2023-04-09T05:06:27.952Z,7.40
2023-04-09T05:08:58.058Z,7.40
2023-04-09T05:11:27.019Z,7.30
2023-04-09T05:13:55.560Z,7.30
2023-04-09T05:16:24.447Z,7.30
2023-04-09T05:18:51.394Z,7.40
2023-04-09T05:21:18.303Z,7.30
2023-04-09T05:23:45.006Z,7.40
2023-04-09T05:26:13.973Z,7.30
2023-04-09T05:28:40.713Z,7.20
2023-04-09T05:31:13.053Z,7.20
2023-04-09T05:33:40.273Z,7.10
2023-04-09T05:36:07.525Z,6.90
2023-04-09T05:38:34.674Z,6.90
2023-04-09T05:41:01.768Z,7.00
2023-04-09T05:43:28.517Z,7.10
2023-04-09T05:45:55.191Z,7.00
2023-04-09T05:48:22.094Z,7.10
2023-04-09T05:50:55.122Z,7.20
2023-04-09T05:53:22.811Z,7.20
2023-04-09T05:55:51.931Z,7.40
2023-04-09T05:58:21.672Z,7.40
2023-04-09T06:00:48.336Z,7.40
2023-04-09T06:03:15.109Z,7.30
2023-04-09T06:05:41.848Z,7.20
2023-04-09T06:08:08.564Z,7.30
2023-04-09T06:10:38.139Z,7.30
2023-04-09T06:13:07.825Z,7.20
2023-04-09T06:15:34.579Z,7.10
2023-04-09T06:18:03.749Z,7.20
2023-04-09T06:20:32.601Z,7.30
2023-04-09T06:23:01.363Z,7.30
2023-04-09T06:25:28.050Z,7.30
2023-04-09T06:27:54.719Z,7.30
2023-04-09T06:30:22.176Z,7.40
2023-04-09T06:32:54.653Z,7.50
2023-04-09T06:35:21.935Z,7.50
2023-04-09T06:37:50.880Z,7.50
2023-04-09T06:40:17.923Z,7.50
2023-04-09T06:42:47.325Z,7.50
2023-04-09T06:45:13.967Z,7.30
2023-04-09T06:47:42.802Z,7.30
2023-04-09T06:50:09.620Z,7.30
2023-04-09T06:52:36.376Z,7.50
2023-04-09T06:55:03.057Z,7.60
2023-04-09T06:57:29.738Z,7.40
2023-04-09T06:59:56.558Z,7.50
2023-04-09T07:02:23.395Z,7.50
2023-04-09T07:04:50.492Z,7.80
2023-04-09T07:07:20.865Z,7.90
2023-04-09T07:09:47.914Z,7.80
2023-04-09T07:12:14.575Z,7.80
2023-04-09T07:14:41.229Z,7.80
2023-04-09T07:17:08.307Z,7.90
2023-04-09T07:19:34.988Z,8.00
2023-04-09T07:22:03.782Z,8.00
2023-04-09T07:24:31.232Z,8.10
2023-04-09T07:27:01.584Z,8.10
2023-04-09T07:29:28.280Z,8.20
2023-04-09T07:31:55.170Z,8.20
2023-04-09T07:34:21.838Z,8.30
2023-04-09T07:36:48.639Z,8.40
2023-04-09T07:39:15.684Z,8.50
2023-04-09T07:41:42.582Z,8.50
2023-04-09T07:44:09.445Z,8.70
2023-04-09T07:46:36.163Z,8.70
2023-04-09T07:49:02.850Z,8.70
2023-04-09T07:51:29.547Z,8.80
2023-04-09T07:53:56.499Z,8.90
2023-04-09T07:56:25.597Z,8.80
2023-04-09T07:58:52.435Z,9.00
2023-04-09T08:01:21.626Z,9.00
2023-04-09T08:03:48.420Z,9.00
2023-04-09T08:06:17.707Z,9.00
2023-04-09T08:08:44.368Z,9.10
2023-04-09T08:11:13.208Z,9.10
2023-04-09T08:13:40.532Z,9.20
2023-04-09T18:53:27.526Z,12.20
2023-04-09T18:55:54.264Z,12.40
2023-04-09T18:58:21.378Z,12.50
2023-04-09T19:00:53.305Z,12.20
2023-04-09T19:03:26.629Z,11.80
2023-04-09T19:05:54.543Z,11.40
2023-04-09T19:08:22.225Z,11.40
2023-04-09T19:10:48.936Z,11.70
2023-04-09T19:13:16.801Z,11.80
2023-04-09T19:15:43.484Z,11.80
2023-04-09T19:18:10.465Z,11.90
2023-04-09T19:20:37.713Z,11.80
2023-04-09T19:23:06.629Z,11.60
2023-04-09T19:25:34.387Z,11.50
2023-04-09T19:28:03.141Z,11.50
2023-04-09T19:30:32.104Z,11.60
2023-04-09T19:32:58.873Z,11.70
2023-04-09T19:35:28.214Z,11.60
2023-04-09T19:37:54.940Z,11.60
2023-04-09T19:40:21.636Z,11.60
2023-04-09T19:42:50.752Z,11.60
2023-04-09T19:45:17.465Z,11.50
2023-04-09T19:47:44.174Z,11.40
2023-04-09T19:50:11.000Z,11.30
2023-04-09T19:52:37.767Z,11.30
2023-04-09T19:55:07.647Z,11.20
2023-04-09T19:57:34.816Z,11.10
2023-04-09T20:00:01.552Z,11.10
2023-04-09T20:02:28.449Z,10.80
2023-04-09T20:04:55.206Z,10.90
2023-04-09T20:07:21.978Z,10.80
2023-04-09T20:09:49.755Z,10.70
2023-04-09T20:12:16.761Z,10.80
2023-04-09T20:14:43.417Z,10.80
2023-04-09T20:17:10.701Z,10.60
2023-04-09T20:19:37.851Z,10.60
2023-04-09T20:22:04.737Z,10.50
2023-04-09T20:24:32.348Z,10.60
2023-04-09T20:26:59.706Z,10.50
2023-04-09T20:29:26.586Z,10.30
2023-04-09T20:31:55.735Z,10.20
2023-04-09T20:34:26.943Z,10.20
2023-04-09T20:36:54.062Z,10.20
2023-04-09T20:39:21.806Z,10.30
2023-04-09T20:41:48.679Z,10.10
2023-04-09T20:44:15.611Z,10.20
2023-04-09T20:46:42.308Z,10.00
2023-04-09T20:49:10.164Z,9.90
2023-04-09T20:51:36.943Z,9.90
2023-04-09T20:54:04.230Z,9.80
2023-04-09T20:56:32.084Z,9.80
2023-04-09T20:58:58.857Z,9.70
2023-04-09T21:01:30.647Z,9.70
2023-04-09T21:03:57.556Z,9.50
2023-04-09T21:06:24.389Z,9.60
2023-04-09T21:08:51.710Z,9.50
2023-04-09T21:11:18.560Z,9.60
2023-04-09T21:13:53.592Z,9.50
2023-04-09T21:16:21.695Z,9.50
2023-04-09T21:18:49.182Z,9.40
2023-04-09T21:21:16.017Z,9.40
2023-04-09T21:23:42.726Z,9.30
2023-04-09T21:26:11.335Z,9.30
2023-04-09T21:28:38.142Z,9.30
2023-04-09T21:31:04.999Z,9.30
2023-04-09T21:33:31.704Z,9.40
2023-04-09T21:35:58.541Z,9.20
2023-04-09T21:38:25.236Z,9.10
2023-04-09T21:40:51.921Z,9.10
2023-04-09T21:43:18.625Z,9.20
2023-04-09T21:45:47.482Z,9.10
2023-04-09T21:48:14.175Z,9.00
2023-04-09T21:50:41.715Z,9.00
2023-04-09T21:53:10.986Z,8.90
2023-04-09T21:55:38.863Z,8.80
2023-04-09T21:58:05.971Z,8.80
2023-04-09T22:00:35.217Z,8.80
2023-04-09T22:03:02.211Z,8.70
2023-04-09T22:05:32.078Z,8.80
2023-04-09T22:07:58.742Z,8.80
2023-04-09T22:10:28.756Z,8.90
2023-04-09T22:12:55.887Z,8.90
2023-04-09T22:15:25.865Z,8.80
2023-04-09T22:17:55.026Z,8.50
2023-04-09T22:20:21.933Z,8.60
2023-04-09T22:22:48.623Z,8.60
2023-04-09T22:25:17.076Z,8.40
2023-04-09T22:27:43.877Z,8.40
2023-04-09T22:30:10.811Z,8.40
2023-04-09T22:32:39.643Z,8.40
2023-04-09T22:35:06.907Z,8.50
2023-04-09T22:37:33.578Z,8.40
2023-04-09T22:40:00.297Z,8.40
2023-04-09T22:42:29.238Z,8.30
2023-04-09T22:44:56.030Z,8.10
2023-04-09T22:47:25.546Z,8.20
2023-04-09T22:49:54.797Z,8.20
2023-04-09T22:52:21.825Z,8.10
2023-04-09T22:54:48.483Z,8.10
2023-04-09T22:57:15.462Z,8.10
2023-04-09T22:59:42.129Z,8.10
2023-04-09T23:02:08.951Z,8.10
2023-04-09T23:04:35.815Z,8.10
2023-04-09T23:07:05.010Z,8.10
2023-04-09T23:09:32.014Z,7.90
2023-04-09T23:11:58.913Z,7.90
2023-04-09T23:14:25.664Z,7.90
2023-04-09T23:16:52.312Z,7.80
2023-04-09T23:19:19.057Z,7.60
2023-04-09T23:21:45.915Z,7.70
2023-04-09T23:24:12.582Z,7.80
2023-04-09T23:26:39.245Z,7.70
2023-04-09T23:29:05.944Z,7.60
2023-04-09T23:31:32.663Z,7.70
2023-04-09T23:33:59.390Z,7.60
2023-04-09T23:36:26.159Z,7.60
2023-04-09T23:38:52.845Z,7.30
2023-04-09T23:41:22.005Z,7.50
2023-04-09T23:43:48.724Z,7.50
2023-04-09T23:46:17.616Z,7.30
2023-04-09T23:48:44.293Z,7.40
2023-04-09T23:51:19.087Z,7.30
2023-04-09T23:53:45.805Z,7.40
2023-04-09T23:56:13.710Z,7.20
2023-04-09T23:58:40.439Z,7.10
